sensor_id;sensor_type;location;lat;lon;timestamp;pressure;altitude;pressure_sealevel;temperature;humidity
72096;BME280;59968;51.084;16.748;2023-05-11T00:00:38;100250.38;;;15.47;52.93
72096;BME280;59968;51.084;16.748;2023-05-11T00:03:21;100250.96;;;15.45;52.87
72096;BME280;59968;51.084;16.748;2023-05-11T00:06:08;100244.91;;;15.43;52.90
72096;BME280;59968;51.084;16.748;2023-05-11T00:08:43;100246.25;;;15.40;53.00
72096;BME280;59968;51.084;16.748;2023-05-11T00:11:20;100246.04;;;15.38;52.76
72096;BME280;59968;51.084;16.748;2023-05-11T00:13:53;100246.85;;;15.38;52.92
72096;BME280;59968;51.084;16.748;2023-05-11T00:16:22;100247.02;;;15.36;53.13
72096;BME280;59968;51.084;16.748;2023-05-11T00:19:10;100246.54;;;15.36;53.19
72096;BME280;59968;51.084;16.748;2023-05-11T00:21:45;100244.64;;;15.35;53.20
72096;BME280;59968;51.084;16.748;2023-05-11T00:24:22;100244.90;;;15.33;53.14
72096;BME280;59968;51.084;16.748;2023-05-11T00:26:56;100250.72;;;15.34;53.38
72096;BME280;59968;51.084;16.748;2023-05-11T00:29:33;100245.21;;;15.31;53.29
72096;BME280;59968;51.084;16.748;2023-05-11T00:32:05;100248.23;;;15.31;53.17
72096;BME280;59968;51.084;16.748;2023-05-11T00:34:39;100247.90;;;15.28;53.03
72096;BME280;59968;51.084;16.748;2023-05-11T00:37:13;100246.48;;;15.24;53.26
72096;BME280;59968;51.084;16.748;2023-05-11T00:39:48;100254.23;;;15.25;53.31
72096;BME280;59968;51.084;16.748;2023-05-11T00:43:15;100257.58;;;15.23;53.36
72096;BME280;59968;51.084;16.748;2023-05-11T00:45:44;100256.48;;;15.21;53.54
72096;BME280;59968;51.084;16.748;2023-05-11T00:48:21;100256.89;;;15.19;53.47
72096;BME280;59968;51.084;16.748;2023-05-11T00:51:04;100254.25;;;15.16;53.42
72096;BME280;59968;51.084;16.748;2023-05-11T00:53:37;100259.36;;;15.14;53.53
72096;BME280;59968;51.084;16.748;2023-05-11T00:56:35;100260.41;;;15.14;53.77
72096;BME280;59968;51.084;16.748;2023-05-11T00:59:26;100258.30;;;15.13;53.44
72096;BME280;59968;51.084;16.748;2023-05-11T01:02:30;100256.33;;;15.10;53.51
72096;BME280;59968;51.084;16.748;2023-05-11T01:05:10;100255.89;;;15.07;53.43
72096;BME280;59968;51.084;16.748;2023-05-11T01:08:14;100263.66;;;15.05;53.60
72096;BME280;59968;51.084;16.748;2023-05-11T01:11:09;100262.34;;;15.01;53.67
72096;BME280;59968;51.084;16.748;2023-05-11T01:13:44;100258.60;;;14.98;53.73
72096;BME280;59968;51.084;16.748;2023-05-11T01:16:20;100258.89;;;14.96;53.69
72096;BME280;59968;51.084;16.748;2023-05-11T01:19:17;100258.89;;;14.93;53.67
72096;BME280;59968;51.084;16.748;2023-05-11T01:21:56;100256.08;;;14.89;53.78
72096;BME280;59968;51.084;16.748;2023-05-11T01:25:17;100256.48;;;14.89;53.88
72096;BME280;59968;51.084;16.748;2023-05-11T01:28:22;100258.27;;;14.86;53.93
72096;BME280;59968;51.084;16.748;2023-05-11T01:31:09;100256.30;;;14.83;53.78
72096;BME280;59968;51.084;16.748;2023-05-11T01:34:27;100256.75;;;14.79;53.94
72096;BME280;59968;51.084;16.748;2023-05-11T01:37:30;100257.20;;;14.74;54.19
72096;BME280;59968;51.084;16.748;2023-05-11T01:40:17;100253.56;;;14.73;54.16
72096;BME280;59968;51.084;16.748;2023-05-11T01:43:25;100259.13;;;14.71;54.12
72096;BME280;59968;51.084;16.748;2023-05-11T01:46:06;100259.15;;;14.68;54.19
72096;BME280;59968;51.084;16.748;2023-05-11T01:48:48;100260.09;;;14.66;54.27
72096;BME280;59968;51.084;16.748;2023-05-11T01:51:38;100261.08;;;14.64;54.35
72096;BME280;59968;51.084;16.748;2023-05-11T01:54:21;100262.59;;;14.61;54.35
72096;BME280;59968;51.084;16.748;2023-05-11T01:57:03;100266.43;;;14.60;54.51
72096;BME280;59968;51.084;16.748;2023-05-11T01:59:45;100265.84;;;14.58;54.50
72096;BME280;59968;51.084;16.748;2023-05-11T02:02:23;100264.41;;;14.56;54.58
72096;BME280;59968;51.084;16.748;2023-05-11T02:04:59;100262.87;;;14.53;54.63
72096;BME280;59968;51.084;16.748;2023-05-11T02:07:35;100268.77;;;14.51;54.73
72096;BME280;59968;51.084;16.748;2023-05-11T02:10:09;100266.77;;;14.49;54.87
72096;BME280;59968;51.084;16.748;2023-05-11T02:12:45;100270.19;;;14.48;54.92
72096;BME280;59968;51.084;16.748;2023-05-11T02:15:21;100272.58;;;14.46;54.81
72096;BME280;59968;51.084;16.748;2023-05-11T02:17:59;100270.95;;;14.44;55.08
72096;BME280;59968;51.084;16.748;2023-05-11T02:20:42;100269.27;;;14.40;55.18
72096;BME280;59968;51.084;16.748;2023-05-11T02:23:18;100270.26;;;14.40;55.17
72096;BME280;59968;51.084;16.748;2023-05-11T02:26:08;100270.96;;;14.37;55.41
72096;BME280;59968;51.084;16.748;2023-05-11T02:28:42;100274.16;;;14.35;55.40
72096;BME280;59968;51.084;16.748;2023-05-11T02:31:31;100278.34;;;14.34;55.46
72096;BME280;59968;51.084;16.748;2023-05-11T02:34:14;100273.59;;;14.32;55.54
72096;BME280;59968;51.084;16.748;2023-05-11T02:36:58;100275.57;;;14.29;55.52
72096;BME280;59968;51.084;16.748;2023-05-11T02:39:34;100274.59;;;14.28;55.75
72096;BME280;59968;51.084;16.748;2023-05-11T02:42:26;100273.15;;;14.27;55.93
72096;BME280;59968;51.084;16.748;2023-05-11T02:45:00;100268.88;;;14.24;55.97
72096;BME280;59968;51.084;16.748;2023-05-11T02:47:38;100269.66;;;14.22;55.94
72096;BME280;59968;51.084;16.748;2023-05-11T02:50:21;100278.48;;;14.22;56.02
72096;BME280;59968;51.084;16.748;2023-05-11T02:53:00;100276.42;;;14.22;56.14
72096;BME280;59968;51.084;16.748;2023-05-11T02:55:35;100272.25;;;14.20;56.12
72096;BME280;59968;51.084;16.748;2023-05-11T02:58:06;100275.20;;;14.19;56.25
72096;BME280;59968;51.084;16.748;2023-05-11T03:00:49;100272.86;;;14.18;56.26
72096;BME280;59968;51.084;16.748;2023-05-11T03:03:23;100268.65;;;14.16;56.43
72096;BME280;59968;51.084;16.748;2023-05-11T03:06:03;100275.46;;;14.14;56.66
72096;BME280;59968;51.084;16.748;2023-05-11T03:08:37;100276.02;;;14.12;56.42
72096;BME280;59968;51.084;16.748;2023-05-11T03:11:12;100271.84;;;14.09;56.62
72096;BME280;59968;51.084;16.748;2023-05-11T03:13:51;100271.98;;;14.07;56.62
72096;BME280;59968;51.084;16.748;2023-05-11T03:16:24;100269.86;;;14.02;56.67
72096;BME280;59968;51.084;16.748;2023-05-11T03:19:00;100269.20;;;13.98;56.91
72096;BME280;59968;51.084;16.748;2023-05-11T03:21:45;100276.74;;;13.96;57.01
72096;BME280;59968;51.084;16.748;2023-05-11T03:24:17;100268.91;;;13.94;57.12
72096;BME280;59968;51.084;16.748;2023-05-11T03:27:13;100273.30;;;13.91;57.09
72096;BME280;59968;51.084;16.748;2023-05-11T03:29:51;100273.58;;;13.91;57.42
72096;BME280;59968;51.084;16.748;2023-05-11T03:32:51;100280.11;;;13.90;57.54
72096;BME280;59968;51.084;16.748;2023-05-11T03:35:32;100276.35;;;13.91;57.67
72096;BME280;59968;51.084;16.748;2023-05-11T03:38:20;100273.91;;;13.89;57.64
72096;BME280;59968;51.084;16.748;2023-05-11T03:40:59;100278.65;;;13.88;57.63
72096;BME280;59968;51.084;16.748;2023-05-11T03:43:33;100284.40;;;13.86;57.71
72096;BME280;59968;51.084;16.748;2023-05-11T03:46:31;100284.34;;;13.83;57.83
72096;BME280;59968;51.084;16.748;2023-05-11T03:49:28;100281.02;;;13.82;57.88
72096;BME280;59968;51.084;16.748;2023-05-11T03:52:01;100277.59;;;13.81;57.68
72096;BME280;59968;51.084;16.748;2023-05-11T03:54:53;100283.91;;;13.81;57.90
72096;BME280;59968;51.084;16.748;2023-05-11T03:57:31;100286.60;;;13.80;57.82
72096;BME280;59968;51.084;16.748;2023-05-11T04:00:27;100279.12;;;13.77;57.82
72096;BME280;59968;51.084;16.748;2023-05-11T04:03:05;100283.90;;;13.75;57.88
72096;BME280;59968;51.084;16.748;2023-05-11T04:05:39;100284.35;;;13.74;57.92
72096;BME280;59968;51.084;16.748;2023-05-11T04:08:24;100280.80;;;13.76;57.79
72096;BME280;59968;51.084;16.748;2023-05-11T04:11:06;100284.25;;;13.78;57.81
72096;BME280;59968;51.084;16.748;2023-05-11T04:13:35;100290.83;;;13.79;57.83
72096;BME280;59968;51.084;16.748;2023-05-11T04:16:05;100294.67;;;13.80;57.80
72096;BME280;59968;51.084;16.748;2023-05-11T04:18:49;100294.41;;;13.82;57.75
72096;BME280;59968;51.084;16.748;2023-05-11T04:21:17;100292.54;;;13.81;57.75
72096;BME280;59968;51.084;16.748;2023-05-11T04:23:54;100292.66;;;13.79;57.74
72096;BME280;59968;51.084;16.748;2023-05-11T04:26:30;100295.17;;;13.78;57.86
72096;BME280;59968;51.084;16.748;2023-05-11T04:29:00;100294.33;;;13.79;57.73
72096;BME280;59968;51.084;16.748;2023-05-11T04:31:31;100289.35;;;13.82;57.72
72096;BME280;59968;51.084;16.748;2023-05-11T04:34:04;100288.80;;;13.82;57.89
72096;BME280;59968;51.084;16.748;2023-05-11T04:36:37;100294.17;;;13.87;58.00
72096;BME280;59968;51.084;16.748;2023-05-11T04:39:09;100306.00;;;13.90;58.04
72096;BME280;59968;51.084;16.748;2023-05-11T04:41:53;100300.36;;;13.93;57.89
72096;BME280;59968;51.084;16.748;2023-05-11T04:44:33;100307.11;;;13.97;57.97
72096;BME280;59968;51.084;16.748;2023-05-11T04:47:15;100306.17;;;14.00;57.82
72096;BME280;59968;51.084;16.748;2023-05-11T04:49:47;100310.95;;;14.05;57.79
72096;BME280;59968;51.084;16.748;2023-05-11T04:52:25;100305.02;;;14.12;57.63
72096;BME280;59968;51.084;16.748;2023-05-11T04:54:54;100305.17;;;14.17;57.43
72096;BME280;59968;51.084;16.748;2023-05-11T04:57:38;100310.75;;;14.23;57.32
72096;BME280;59968;51.084;16.748;2023-05-11T05:00:11;100307.33;;;14.32;57.18
72096;BME280;59968;51.084;16.748;2023-05-11T05:02:49;100315.45;;;14.43;56.88
72096;BME280;59968;51.084;16.748;2023-05-11T05:05:24;100315.13;;;14.51;56.96
72096;BME280;59968;51.084;16.748;2023-05-11T05:07:57;100317.60;;;14.57;56.72
72096;BME280;59968;51.084;16.748;2023-05-11T05:10:38;100320.55;;;14.65;56.74
72096;BME280;59968;51.084;16.748;2023-05-11T05:13:13;100322.13;;;14.72;56.63
72096;BME280;59968;51.084;16.748;2023-05-11T05:15:45;100323.55;;;14.83;56.33
72096;BME280;59968;51.084;16.748;2023-05-11T05:18:24;100320.29;;;14.92;55.98
72096;BME280;59968;51.084;16.748;2023-05-11T05:20:55;100318.73;;;15.03;55.84
72096;BME280;59968;51.084;16.748;2023-05-11T05:23:28;100320.05;;;15.18;55.44
72096;BME280;59968;51.084;16.748;2023-05-11T05:26:04;100317.21;;;15.33;55.24
72096;BME280;59968;51.084;16.748;2023-05-11T05:28:36;100324.61;;;15.41;54.89
72096;BME280;59968;51.084;16.748;2023-05-11T05:31:10;100320.95;;;15.52;54.66
72096;BME280;59968;51.084;16.748;2023-05-11T05:33:45;100327.17;;;15.70;54.47
72096;BME280;59968;51.084;16.748;2023-05-11T05:36:14;100323.33;;;15.83;54.16
72096;BME280;59968;51.084;16.748;2023-05-11T05:38:43;100320.94;;;15.92;53.79
72096;BME280;59968;51.084;16.748;2023-05-11T05:41:15;100323.45;;;15.98;53.63
72096;BME280;59968;51.084;16.748;2023-05-11T05:43:46;100321.32;;;16.05;53.64
72096;BME280;59968;51.084;16.748;2023-05-11T05:46:17;100328.36;;;16.10;53.29
72096;BME280;59968;51.084;16.748;2023-05-11T05:48:47;100330.94;;;16.19;53.19
72096;BME280;59968;51.084;16.748;2023-05-11T05:51:18;100329.46;;;16.34;53.24
72096;BME280;59968;51.084;16.748;2023-05-11T05:53:50;100330.02;;;16.47;52.97
72096;BME280;59968;51.084;16.748;2023-05-11T05:56:21;100331.95;;;16.58;52.86
72096;BME280;59968;51.084;16.748;2023-05-11T05:58:56;100332.73;;;16.74;52.87
72096;BME280;59968;51.084;16.748;2023-05-11T06:01:25;100332.30;;;16.91;52.54
72096;BME280;59968;51.084;16.748;2023-05-11T06:03:57;100332.55;;;17.09;52.38
72096;BME280;59968;51.084;16.748;2023-05-11T06:06:27;100332.98;;;17.27;52.29
72096;BME280;59968;51.084;16.748;2023-05-11T06:08:56;100332.02;;;17.45;52.12
72096;BME280;59968;51.084;16.748;2023-05-11T06:11:28;100331.52;;;17.61;51.44
72096;BME280;59968;51.084;16.748;2023-05-11T06:13:57;100330.34;;;17.79;51.25
72096;BME280;59968;51.084;16.748;2023-05-11T06:16:26;100329.19;;;17.94;50.98
72096;BME280;59968;51.084;16.748;2023-05-11T06:18:59;100331.71;;;18.09;50.49
72096;BME280;59968;51.084;16.748;2023-05-11T06:21:31;100333.60;;;18.22;50.35
72096;BME280;59968;51.084;16.748;2023-05-11T06:24:00;100332.22;;;18.33;50.02
72096;BME280;59968;51.084;16.748;2023-05-11T06:26:29;100328.65;;;18.49;49.77
72096;BME280;59968;51.084;16.748;2023-05-11T06:28:57;100330.60;;;18.66;49.47
72096;BME280;59968;51.084;16.748;2023-05-11T06:31:29;100331.60;;;18.86;49.42
72096;BME280;59968;51.084;16.748;2023-05-11T06:33:59;100334.63;;;19.03;49.34
72096;BME280;59968;51.084;16.748;2023-05-11T06:36:28;100334.47;;;19.20;48.94
72096;BME280;59968;51.084;16.748;2023-05-11T06:38:57;100334.81;;;19.37;48.68
72096;BME280;59968;51.084;16.748;2023-05-11T06:41:27;100333.52;;;19.53;48.17
72096;BME280;59968;51.084;16.748;2023-05-11T06:43:55;100337.92;;;19.70;47.97
72096;BME280;59968;51.084;16.748;2023-05-11T06:46:29;100339.41;;;19.86;47.38
72096;BME280;59968;51.084;16.748;2023-05-11T06:48:59;100341.33;;;19.98;47.34
72096;BME280;59968;51.084;16.748;2023-05-11T06:51:28;100337.02;;;20.11;47.05
72096;BME280;59968;51.084;16.748;2023-05-11T06:54:06;100336.44;;;20.23;47.46
72096;BME280;59968;51.084;16.748;2023-05-11T06:56:36;100334.48;;;20.39;46.81
72096;BME280;59968;51.084;16.748;2023-05-11T06:59:05;100334.35;;;20.52;46.59
72096;BME280;59968;51.084;16.748;2023-05-11T07:01:34;100332.13;;;20.65;46.41
72096;BME280;59968;51.084;16.748;2023-05-11T07:04:03;100331.45;;;20.75;45.47
72096;BME280;59968;51.084;16.748;2023-05-11T07:06:32;100333.05;;;20.79;45.44
72096;BME280;59968;51.084;16.748;2023-05-11T07:09:05;100331.02;;;20.90;45.82
72096;BME280;59968;51.084;16.748;2023-05-11T07:11:34;100331.65;;;21.02;45.23
72096;BME280;59968;51.084;16.748;2023-05-11T07:14:03;100331.52;;;21.11;45.17
72096;BME280;59968;51.084;16.748;2023-05-11T07:16:35;100331.44;;;21.28;44.71
72096;BME280;59968;51.084;16.748;2023-05-11T07:19:08;100329.95;;;21.40;44.79
72096;BME280;59968;51.084;16.748;2023-05-11T07:21:37;100334.79;;;21.52;44.78
72096;BME280;59968;51.084;16.748;2023-05-11T07:24:07;100328.48;;;21.62;44.12
72096;BME280;59968;51.084;16.748;2023-05-11T07:26:36;100332.52;;;21.70;44.14
72096;BME280;59968;51.084;16.748;2023-05-11T07:29:06;100336.01;;;21.75;44.07
72096;BME280;59968;51.084;16.748;2023-05-11T07:31:34;100328.34;;;21.71;43.34
72096;BME280;59968;51.084;16.748;2023-05-11T07:34:04;100340.39;;;21.73;43.44
72096;BME280;59968;51.084;16.748;2023-05-11T07:36:33;100338.74;;;21.72;43.81
72096;BME280;59968;51.084;16.748;2023-05-11T07:39:01;100343.29;;;21.74;43.98
72096;BME280;59968;51.084;16.748;2023-05-11T07:41:30;100341.77;;;21.80;43.91
72096;BME280;59968;51.084;16.748;2023-05-11T07:43:59;100343.51;;;21.87;43.65
72096;BME280;59968;51.084;16.748;2023-05-11T07:46:29;100346.90;;;21.93;43.43
72096;BME280;59968;51.084;16.748;2023-05-11T07:48:58;100346.42;;;21.97;43.49
72096;BME280;59968;51.084;16.748;2023-05-11T07:51:42;100345.47;;;22.01;42.89
72096;BME280;59968;51.084;16.748;2023-05-11T07:54:12;100346.21;;;22.00;42.81
72096;BME280;59968;51.084;16.748;2023-05-11T07:56:42;100345.16;;;22.02;42.61
72096;BME280;59968;51.084;16.748;2023-05-11T07:59:11;100343.75;;;22.09;42.73
72096;BME280;59968;51.084;16.748;2023-05-11T08:01:40;100345.01;;;22.12;42.90
72096;BME280;59968;51.084;16.748;2023-05-11T08:04:09;100340.64;;;22.18;41.82
72096;BME280;59968;51.084;16.748;2023-05-11T08:06:38;100343.96;;;22.22;41.25
72096;BME280;59968;51.084;16.748;2023-05-11T08:09:06;100333.87;;;22.27;41.81
72096;BME280;59968;51.084;16.748;2023-05-11T08:11:35;100344.38;;;22.41;42.53
72096;BME280;59968;51.084;16.748;2023-05-11T08:14:04;100343.16;;;22.51;42.47
72096;BME280;59968;51.084;16.748;2023-05-11T08:16:34;100340.66;;;22.61;41.28
72096;BME280;59968;51.084;16.748;2023-05-11T08:19:05;100340.59;;;22.65;41.19
72096;BME280;59968;51.084;16.748;2023-05-11T08:21:34;100340.04;;;22.73;41.30
72096;BME280;59968;51.084;16.748;2023-05-11T08:24:03;100342.25;;;22.78;40.76
72096;BME280;59968;51.084;16.748;2023-05-11T08:26:32;100339.69;;;22.88;40.70
72096;BME280;59968;51.084;16.748;2023-05-11T08:29:00;100339.43;;;23.01;40.51
72096;BME280;59968;51.084;16.748;2023-05-11T08:31:31;100338.71;;;23.12;39.46
72096;BME280;59968;51.084;16.748;2023-05-11T08:34:01;100339.76;;;23.28;39.51
72096;BME280;59968;51.084;16.748;2023-05-11T08:36:29;100339.35;;;23.44;39.15
72096;BME280;59968;51.084;16.748;2023-05-11T08:38:59;100339.69;;;23.50;38.78
72096;BME280;59968;51.084;16.748;2023-05-11T08:41:28;100340.31;;;23.51;37.84
72096;BME280;59968;51.084;16.748;2023-05-11T08:43:58;100338.14;;;23.53;37.96
72096;BME280;59968;51.084;16.748;2023-05-11T08:46:29;100340.13;;;23.57;37.73
72096;BME280;59968;51.084;16.748;2023-05-11T08:49:01;100340.08;;;23.64;36.77
72096;BME280;59968;51.084;16.748;2023-05-11T08:51:30;100340.55;;;23.65;37.47
72096;BME280;59968;51.084;16.748;2023-05-11T08:54:00;100336.33;;;23.64;37.11
72096;BME280;59968;51.084;16.748;2023-05-11T08:56:39;100339.67;;;23.72;36.74
72096;BME280;59968;51.084;16.748;2023-05-11T08:59:08;100338.64;;;23.94;36.78
72096;BME280;59968;51.084;16.748;2023-05-11T09:01:40;100342.34;;;24.12;36.07
72096;BME280;59968;51.084;16.748;2023-05-11T09:04:09;100340.15;;;24.13;36.01
72096;BME280;59968;51.084;16.748;2023-05-11T09:06:39;100339.48;;;24.18;35.87
72096;BME280;59968;51.084;16.748;2023-05-11T09:09:08;100337.94;;;24.24;35.30
72096;BME280;59968;51.084;16.748;2023-05-11T09:11:39;100336.55;;;24.33;35.17
72096;BME280;59968;51.084;16.748;2023-05-11T09:14:08;100334.42;;;24.46;35.21
72096;BME280;59968;51.084;16.748;2023-05-11T09:16:38;100335.14;;;24.54;35.63
72096;BME280;59968;51.084;16.748;2023-05-11T09:19:13;100330.21;;;24.68;35.02
72096;BME280;59968;51.084;16.748;2023-05-11T09:21:51;100324.23;;;24.81;34.47
72096;BME280;59968;51.084;16.748;2023-05-11T09:24:26;100324.68;;;24.92;35.14
72096;BME280;59968;51.084;16.748;2023-05-11T09:27:06;100326.85;;;25.02;34.55
72096;BME280;59968;51.084;16.748;2023-05-11T09:29:43;100323.45;;;25.12;33.61
72096;BME280;59968;51.084;16.748;2023-05-11T09:32:21;100322.10;;;25.18;33.98
72096;BME280;59968;51.084;16.748;2023-05-11T09:34:52;100323.27;;;25.26;33.75
72096;BME280;59968;51.084;16.748;2023-05-11T09:37:24;100319.70;;;25.31;33.56
72096;BME280;59968;51.084;16.748;2023-05-11T09:39:56;100322.87;;;25.42;33.67
72096;BME280;59968;51.084;16.748;2023-05-11T09:42:33;100320.63;;;25.47;33.32
72096;BME280;59968;51.084;16.748;2023-05-11T09:45:07;100320.90;;;25.51;33.06
72096;BME280;59968;51.084;16.748;2023-05-11T09:47:42;100318.42;;;25.54;33.02
72096;BME280;59968;51.084;16.748;2023-05-11T09:50:17;100318.21;;;25.52;33.02
72096;BME280;59968;51.084;16.748;2023-05-11T09:52:55;100304.06;;;25.43;33.16
72096;BME280;59968;51.084;16.748;2023-05-11T09:55:27;100320.33;;;25.46;33.30
72096;BME280;59968;51.084;16.748;2023-05-11T09:58:00;100316.73;;;25.45;33.54
72096;BME280;59968;51.084;16.748;2023-05-11T10:00:31;100314.39;;;25.45;33.35
72096;BME280;59968;51.084;16.748;2023-05-11T10:03:09;100314.58;;;25.55;33.08
72096;BME280;59968;51.084;16.748;2023-05-11T10:05:55;100306.14;;;25.58;32.74
72096;BME280;59968;51.084;16.748;2023-05-11T10:08:29;100303.41;;;25.56;33.15
72096;BME280;59968;51.084;16.748;2023-05-11T10:11:03;100306.10;;;25.45;33.08
72096;BME280;59968;51.084;16.748;2023-05-11T10:13:37;100306.96;;;25.23;32.78
72096;BME280;59968;51.084;16.748;2023-05-11T10:16:11;100307.59;;;25.02;33.00
72096;BME280;59968;51.084;16.748;2023-05-11T10:18:44;100305.88;;;24.95;33.11
72096;BME280;59968;51.084;16.748;2023-05-11T10:21:17;100306.38;;;25.01;33.06
72096;BME280;59968;51.084;16.748;2023-05-11T10:23:49;100301.92;;;25.01;32.16
72096;BME280;59968;51.084;16.748;2023-05-11T10:26:20;100300.92;;;25.01;32.03
72096;BME280;59968;51.084;16.748;2023-05-11T10:28:53;100294.45;;;25.05;32.23
72096;BME280;59968;51.084;16.748;2023-05-11T10:31:24;100292.16;;;25.05;32.18
72096;BME280;59968;51.084;16.748;2023-05-11T10:34:00;100294.69;;;24.97;31.86
72096;BME280;59968;51.084;16.748;2023-05-11T10:36:32;100291.08;;;24.90;31.72
72096;BME280;59968;51.084;16.748;2023-05-11T10:39:03;100289.48;;;24.90;32.00
72096;BME280;59968;51.084;16.748;2023-05-11T10:42:03;100285.08;;;24.85;31.34
72096;BME280;59968;51.084;16.748;2023-05-11T10:56:51;100283.86;;;24.27;32.01
72096;BME280;59968;51.084;16.748;2023-05-11T11:00:33;100280.40;;;24.23;31.81
72096;BME280;59968;51.084;16.748;2023-05-11T11:02:42;100284.88;;;24.25;32.58
72096;BME280;59968;51.084;16.748;2023-05-11T11:05:32;100282.44;;;24.25;32.58
72096;BME280;59968;51.084;16.748;2023-05-11T11:08:04;100279.36;;;24.25;32.07
72096;BME280;59968;51.084;16.748;2023-05-11T11:10:40;100278.52;;;24.25;31.62
72096;BME280;59968;51.084;16.748;2023-05-11T11:13:22;100281.48;;;24.24;31.62
72096;BME280;59968;51.084;16.748;2023-05-11T11:18:30;100280.45;;;24.11;32.25
72096;BME280;59968;51.084;16.748;2023-05-11T11:21:05;100279.36;;;24.07;32.27
72096;BME280;59968;51.084;16.748;2023-05-11T11:23:43;100279.88;;;24.07;32.53
72096;BME280;59968;51.084;16.748;2023-05-11T11:26:50;100277.77;;;24.07;31.98
72096;BME280;59968;51.084;16.748;2023-05-11T11:29:22;100275.96;;;24.04;31.63
72096;BME280;59968;51.084;16.748;2023-05-11T11:31:54;100275.05;;;23.99;31.89
72096;BME280;59968;51.084;16.748;2023-05-11T11:37:01;100272.64;;;24.02;32.54
72096;BME280;59968;51.084;16.748;2023-05-11T11:42:15;100273.21;;;23.92;31.42
72096;BME280;59968;51.084;16.748;2023-05-11T11:44:46;100273.35;;;23.88;32.29
72096;BME280;59968;51.084;16.748;2023-05-11T11:47:20;100281.08;;;23.82;32.29
72096;BME280;59968;51.084;16.748;2023-05-11T11:49:53;100278.73;;;23.76;32.43
72096;BME280;59968;51.084;16.748;2023-05-11T11:55:00;100276.70;;;23.73;32.37
72096;BME280;59968;51.084;16.748;2023-05-11T12:00:06;100273.84;;;23.78;31.35
72096;BME280;59968;51.084;16.748;2023-05-11T12:02:41;100273.29;;;23.94;32.29
72096;BME280;59968;51.084;16.748;2023-05-11T12:05:17;100276.30;;;24.13;30.01
72096;BME280;59968;51.084;16.748;2023-05-11T12:07:52;100270.90;;;24.24;29.20
72096;BME280;59968;51.084;16.748;2023-05-11T12:10:23;100270.65;;;24.28;29.43
72096;BME280;59968;51.084;16.748;2023-05-11T12:12:58;100271.41;;;24.37;29.29
72096;BME280;59968;51.084;16.748;2023-05-11T12:15:31;100269.58;;;24.40;29.99
72096;BME280;59968;51.084;16.748;2023-05-11T12:18:02;100265.20;;;24.34;29.83
72096;BME280;59968;51.084;16.748;2023-05-11T12:20:35;100267.66;;;24.29;30.04
72096;BME280;59968;51.084;16.748;2023-05-11T12:23:10;100261.70;;;24.20;30.02
72096;BME280;59968;51.084;16.748;2023-05-11T12:25:42;100262.84;;;24.14;31.18
72096;BME280;59968;51.084;16.748;2023-05-11T12:28:20;100259.67;;;24.23;31.29
72096;BME280;59968;51.084;16.748;2023-05-11T12:30:55;100258.92;;;24.17;29.54
72096;BME280;59968;51.084;16.748;2023-05-11T12:33:29;100259.67;;;24.11;29.85
72096;BME280;59968;51.084;16.748;2023-05-11T12:36:00;100261.13;;;24.05;30.27
72096;BME280;59968;51.084;16.748;2023-05-11T12:38:32;100257.73;;;24.00;30.78
72096;BME280;59968;51.084;16.748;2023-05-11T12:41:05;100254.95;;;23.96;31.13
72096;BME280;59968;51.084;16.748;2023-05-11T12:43:38;100257.42;;;23.92;31.29
72096;BME280;59968;51.084;16.748;2023-05-11T12:46:10;100250.27;;;23.86;31.13
72096;BME280;59968;51.084;16.748;2023-05-11T12:48:42;100250.89;;;23.81;31.10
72096;BME280;59968;51.084;16.748;2023-05-11T12:51:44;100246.27;;;23.77;31.13
72096;BME280;59968;51.084;16.748;2023-05-11T12:54:34;100244.73;;;23.76;30.85
72096;BME280;59968;51.084;16.748;2023-05-11T12:57:20;100241.89;;;23.73;30.69
72096;BME280;59968;51.084;16.748;2023-05-11T13:00:09;100237.63;;;23.68;30.47
72096;BME280;59968;51.084;16.748;2023-05-11T13:02:52;100236.19;;;23.69;30.15
72096;BME280;59968;51.084;16.748;2023-05-11T13:05:25;100239.48;;;23.62;30.17
72096;BME280;59968;51.084;16.748;2023-05-11T13:08:02;100238.55;;;23.58;30.56
72096;BME280;59968;51.084;16.748;2023-05-11T13:10:36;100235.27;;;23.67;30.84
72096;BME280;59968;51.084;16.748;2023-05-11T13:13:08;100227.40;;;23.76;29.96
72096;BME280;59968;51.084;16.748;2023-05-11T13:15:52;100227.73;;;23.84;30.76
72096;BME280;59968;51.084;16.748;2023-05-11T13:18:29;100222.80;;;23.95;30.26
72096;BME280;59968;51.084;16.748;2023-05-11T13:21:06;100217.23;;;24.09;29.55
72096;BME280;59968;51.084;16.748;2023-05-11T13:23:48;100214.59;;;24.21;28.72
72096;BME280;59968;51.084;16.748;2023-05-11T13:26:25;100213.39;;;24.34;27.99
72096;BME280;59968;51.084;16.748;2023-05-11T13:29:00;100216.01;;;24.46;28.53
72096;BME280;59968;51.084;16.748;2023-05-11T13:31:43;100213.27;;;24.64;29.48
72096;BME280;59968;51.084;16.748;2023-05-11T13:34:19;100212.19;;;24.84;29.13
72096;BME280;59968;51.084;16.748;2023-05-11T13:36:50;100207.54;;;24.95;28.80
72096;BME280;59968;51.084;16.748;2023-05-11T13:39:25;100203.93;;;25.03;29.13
72096;BME280;59968;51.084;16.748;2023-05-11T13:41:57;100211.82;;;25.16;28.80
72096;BME280;59968;51.084;16.748;2023-05-11T13:44:30;100213.95;;;25.26;29.92
72096;BME280;59968;51.084;16.748;2023-05-11T13:47:04;100212.50;;;25.31;30.64
72096;BME280;59968;51.084;16.748;2023-05-11T13:49:37;100214.89;;;25.32;30.48
72096;BME280;59968;51.084;16.748;2023-05-11T13:52:09;100211.08;;;25.27;30.56